sensor_id;sensor_type;location;lat;lon;timestamp;P1;durP1;ratioP1;P2;durP2;ratioP2
52942;SDS011;38809;53.300;6.614;2023-03-21T00:00:47;21.52;;;11.85;;
52942;SDS011;38809;53.300;6.614;2023-03-21T00:03:18;21.00;;;11.30;;
52942;SDS011;38809;53.300;6.614;2023-03-21T00:05:44;23.48;;;11.65;;
52942;SDS011;38809;53.300;6.614;2023-03-21T00:08:13;20.38;;;11.88;;
52942;SDS011;38809;53.300;6.614;2023-03-21T00:13:05;17.77;;;9.90;;
52942;SDS011;38809;53.300;6.614;2023-03-21T00:15:31;20.55;;;10.85;;
52942;SDS011;38809;53.300;6.614;2023-03-21T00:17:57;18.05;;;10.20;;
52942;SDS011;38809;53.300;6.614;2023-03-21T00:20:28;16.92;;;10.05;;
52942;SDS011;38809;53.300;6.614;2023-03-21T00:22:55;16.08;;;9.13;;
52942;SDS011;38809;53.300;6.614;2023-03-21T00:25:21;16.20;;;9.57;;
52942;SDS011;38809;53.300;6.614;2023-03-21T00:27:46;17.38;;;9.50;;
52942;SDS011;38809;53.300;6.614;2023-03-21T00:30:13;16.90;;;9.88;;
52942;SDS011;38809;53.300;6.614;2023-03-21T00:32:40;16.48;;;9.00;;
52942;SDS011;38809;53.300;6.614;2023-03-21T00:35:06;17.08;;;9.68;;
52942;SDS011;38809;53.300;6.614;2023-03-21T00:37:32;15.43;;;9.05;;
52942;SDS011;38809;53.300;6.614;2023-03-21T00:39:57;16.90;;;9.60;;
52942;SDS011;38809;53.300;6.614;2023-03-21T00:42:23;19.40;;;9.40;;
52942;SDS011;38809;53.300;6.614;2023-03-21T00:44:49;15.85;;;9.40;;
52942;SDS011;38809;53.300;6.614;2023-03-21T00:47:14;15.60;;;8.70;;
52942;SDS011;38809;53.300;6.614;2023-03-21T00:49:40;16.60;;;8.65;;
52942;SDS011;38809;53.300;6.614;2023-03-21T00:52:07;14.53;;;9.00;;
52942;SDS011;38809;53.300;6.614;2023-03-21T00:54:34;15.30;;;8.60;;
52942;SDS011;38809;53.300;6.614;2023-03-21T00:57:02;15.35;;;8.95;;
52942;SDS011;38809;53.300;6.614;2023-03-21T00:59:29;11.98;;;6.38;;
52942;SDS011;38809;53.300;6.614;2023-03-21T01:01:55;17.05;;;7.53;;
52942;SDS011;38809;53.300;6.614;2023-03-21T01:04:24;14.02;;;7.72;;
52942;SDS011;38809;53.300;6.614;2023-03-21T01:06:50;14.23;;;7.88;;
52942;SDS011;38809;53.300;6.614;2023-03-21T01:09:18;14.75;;;8.18;;
52942;SDS011;38809;53.300;6.614;2023-03-21T01:11:46;15.50;;;8.55;;
52942;SDS011;38809;53.300;6.614;2023-03-21T01:14:13;14.25;;;8.18;;
52942;SDS011;38809;53.300;6.614;2023-03-21T01:16:40;15.70;;;8.18;;
52942;SDS011;38809;53.300;6.614;2023-03-21T01:19:06;17.98;;;8.88;;
52942;SDS011;38809;53.300;6.614;2023-03-21T01:21:33;19.52;;;8.70;;
52942;SDS011;38809;53.300;6.614;2023-03-21T01:24:00;18.92;;;9.02;;
52942;SDS011;38809;53.300;6.614;2023-03-21T01:26:26;19.92;;;9.32;;
52942;SDS011;38809;53.300;6.614;2023-03-21T01:28:52;24.52;;;10.13;;
52942;SDS011;38809;53.300;6.614;2023-03-21T01:31:17;26.40;;;10.20;;
52942;SDS011;38809;53.300;6.614;2023-03-21T01:33:44;27.27;;;10.57;;
52942;SDS011;38809;53.300;6.614;2023-03-21T01:36:12;24.40;;;10.88;;
52942;SDS011;38809;53.300;6.614;2023-03-21T01:38:41;30.10;;;11.80;;
52942;SDS011;38809;53.300;6.614;2023-03-21T01:41:10;34.55;;;12.82;;
52942;SDS011;38809;53.300;6.614;2023-03-21T01:43:44;29.43;;;13.00;;
52942;SDS011;38809;53.300;6.614;2023-03-21T01:49:12;41.50;;;14.38;;
52942;SDS011;38809;53.300;6.614;2023-03-21T01:52:04;44.53;;;14.23;;
52942;SDS011;38809;53.300;6.614;2023-03-21T01:54:35;41.90;;;13.85;;
52942;SDS011;38809;53.300;6.614;2023-03-21T01:57:07;39.10;;;13.43;;
52942;SDS011;38809;53.300;6.614;2023-03-21T01:59:46;39.35;;;13.93;;
52942;SDS011;38809;53.300;6.614;2023-03-21T02:02:16;38.50;;;14.45;;
52942;SDS011;38809;53.300;6.614;2023-03-21T02:04:47;39.17;;;13.07;;
52942;SDS011;38809;53.300;6.614;2023-03-21T02:07:37;35.80;;;12.75;;
52942;SDS011;38809;53.300;6.614;2023-03-21T02:10:08;33.70;;;12.18;;
52942;SDS011;38809;53.300;6.614;2023-03-21T02:12:36;31.45;;;12.68;;
52942;SDS011;38809;53.300;6.614;2023-03-21T02:15:02;24.33;;;10.85;;
52942;SDS011;38809;53.300;6.614;2023-03-21T02:28:23;30.70;;;11.50;;
52942;SDS011;38809;53.300;6.614;2023-03-21T02:52:27;31.50;;;13.80;;
52942;SDS011;38809;53.300;6.614;2023-03-21T02:54:55;30.23;;;13.55;;
52942;SDS011;38809;53.300;6.614;2023-03-21T02:57:23;30.65;;;12.98;;
52942;SDS011;38809;53.300;6.614;2023-03-21T02:59:49;31.00;;;13.43;;
52942;SDS011;38809;53.300;6.614;2023-03-21T03:02:18;30.30;;;13.73;;
52942;SDS011;38809;53.300;6.614;2023-03-21T03:04:48;29.02;;;13.27;;
52942;SDS011;38809;53.300;6.614;2023-03-21T03:10:18;26.10;;;12.85;;
52942;SDS011;38809;53.300;6.614;2023-03-21T03:23:42;25.17;;;13.32;;
52942;SDS011;38809;53.300;6.614;2023-03-21T03:26:16;24.30;;;12.57;;
52942;SDS011;38809;53.300;6.614;2023-03-21T03:28:54;25.85;;;10.27;;
52942;SDS011;38809;53.300;6.614;2023-03-21T03:31:28;22.67;;;12.27;;
52942;SDS011;38809;53.300;6.614;2023-03-21T03:33:59;20.35;;;11.07;;
52942;SDS011;38809;53.300;6.614;2023-03-21T03:36:32;24.88;;;11.93;;
52942;SDS011;38809;53.300;6.614;2023-03-21T03:39:03;22.20;;;11.57;;
52942;SDS011;38809;53.300;6.614;2023-03-21T03:41:34;19.45;;;11.25;;
52942;SDS011;38809;53.300;6.614;2023-03-21T03:44:08;19.85;;;11.35;;
52942;SDS011;38809;53.300;6.614;2023-03-21T03:46:43;21.00;;;11.70;;
52942;SDS011;38809;53.300;6.614;2023-03-21T03:49:25;19.05;;;11.32;;
52942;SDS011;38809;53.300;6.614;2023-03-21T03:54:31;21.20;;;11.68;;
52942;SDS011;38809;53.300;6.614;2023-03-21T03:57:03;19.65;;;11.20;;
52942;SDS011;38809;53.300;6.614;2023-03-21T03:59:32;18.83;;;10.52;;
52942;SDS011;38809;53.300;6.614;2023-03-21T04:01:59;19.15;;;10.68;;
52942;SDS011;38809;53.300;6.614;2023-03-21T04:04:25;21.55;;;11.98;;
52942;SDS011;38809;53.300;6.614;2023-03-21T04:06:53;21.67;;;11.27;;
52942;SDS011;38809;53.300;6.614;2023-03-21T04:09:19;20.02;;;11.02;;
52942;SDS011;38809;53.300;6.614;2023-03-21T04:11:46;19.42;;;11.35;;
52942;SDS011;38809;53.300;6.614;2023-03-21T04:14:11;20.42;;;11.70;;
52942;SDS011;38809;53.300;6.614;2023-03-21T04:16:37;19.05;;;10.38;;
52942;SDS011;38809;53.300;6.614;2023-03-21T04:19:03;21.35;;;11.60;;
52942;SDS011;38809;53.300;6.614;2023-03-21T04:21:29;20.85;;;11.38;;
52942;SDS011;38809;53.300;6.614;2023-03-21T04:23:55;21.80;;;11.77;;
52942;SDS011;38809;53.300;6.614;2023-03-21T04:26:21;21.70;;;11.43;;
52942;SDS011;38809;53.300;6.614;2023-03-21T04:28:48;21.50;;;10.52;;
52942;SDS011;38809;53.300;6.614;2023-03-21T04:33:41;16.88;;;7.95;;
52942;SDS011;38809;53.300;6.614;2023-03-21T04:36:08;19.63;;;10.60;;
52942;SDS011;38809;53.300;6.614;2023-03-21T04:38:51;22.23;;;10.35;;
52942;SDS011;38809;53.300;6.614;2023-03-21T04:41:17;20.67;;;10.30;;
52942;SDS011;38809;53.300;6.614;2023-03-21T04:43:44;18.63;;;10.20;;
52942;SDS011;38809;53.300;6.614;2023-03-21T04:46:11;20.23;;;10.05;;
52942;SDS011;38809;53.300;6.614;2023-03-21T04:48:37;19.13;;;10.45;;
52942;SDS011;38809;53.300;6.614;2023-03-21T04:51:03;17.83;;;9.82;;
52942;SDS011;38809;53.300;6.614;2023-03-21T04:53:29;17.15;;;10.02;;
52942;SDS011;38809;53.300;6.614;2023-03-21T04:55:55;20.15;;;10.15;;
52942;SDS011;38809;53.300;6.614;2023-03-21T04:58:21;19.67;;;10.07;;
52942;SDS011;38809;53.300;6.614;2023-03-21T05:03:17;18.25;;;10.02;;
52942;SDS011;38809;53.300;6.614;2023-03-21T05:05:45;17.98;;;9.88;;
52942;SDS011;38809;53.300;6.614;2023-03-21T05:10:38;15.95;;;6.90;;
52942;SDS011;38809;53.300;6.614;2023-03-21T05:13:04;15.90;;;8.32;;
52942;SDS011;38809;53.300;6.614;2023-03-21T05:15:29;20.70;;;9.48;;
52942;SDS011;38809;53.300;6.614;2023-03-21T05:17:55;18.27;;;8.90;;
52942;SDS011;38809;53.300;6.614;2023-03-21T05:20:23;19.17;;;8.90;;
52942;SDS011;38809;53.300;6.614;2023-03-21T05:22:49;17.38;;;8.30;;
52942;SDS011;38809;53.300;6.614;2023-03-21T05:25:16;14.68;;;7.65;;
52942;SDS011;38809;53.300;6.614;2023-03-21T05:27:45;12.25;;;6.95;;
52942;SDS011;38809;53.300;6.614;2023-03-21T05:30:18;15.25;;;7.38;;
52942;SDS011;38809;53.300;6.614;2023-03-21T05:32:44;13.00;;;6.78;;
52942;SDS011;38809;53.300;6.614;2023-03-21T05:35:10;13.27;;;8.18;;
52942;SDS011;38809;53.300;6.614;2023-03-21T05:40:03;13.52;;;7.63;;
52942;SDS011;38809;53.300;6.614;2023-03-21T05:42:32;14.02;;;7.45;;
52942;SDS011;38809;53.300;6.614;2023-03-21T05:44:57;13.07;;;7.60;;
52942;SDS011;38809;53.300;6.614;2023-03-21T05:47:23;13.50;;;7.27;;
52942;SDS011;38809;53.300;6.614;2023-03-21T05:49:49;16.58;;;7.80;;
52942;SDS011;38809;53.300;6.614;2023-03-21T05:52:15;13.83;;;7.20;;
52942;SDS011;38809;53.300;6.614;2023-03-21T05:54:41;18.58;;;8.00;;
52942;SDS011;38809;53.300;6.614;2023-03-21T05:57:07;11.68;;;6.55;;
52942;SDS011;38809;53.300;6.614;2023-03-21T05:59:32;15.93;;;7.38;;
52942;SDS011;38809;53.300;6.614;2023-03-21T06:01:58;14.95;;;7.75;;
52942;SDS011;38809;53.300;6.614;2023-03-21T06:04:24;17.58;;;8.82;;
52942;SDS011;38809;53.300;6.614;2023-03-21T06:06:51;14.85;;;7.85;;
52942;SDS011;38809;53.300;6.614;2023-03-21T06:11:47;13.20;;;7.38;;
52942;SDS011;38809;53.300;6.614;2023-03-21T06:14:15;14.88;;;8.38;;
52942;SDS011;38809;53.300;6.614;2023-03-21T06:16:42;15.02;;;8.38;;
52942;SDS011;38809;53.300;6.614;2023-03-21T06:19:08;14.57;;;8.30;;
52942;SDS011;38809;53.300;6.614;2023-03-21T06:21:34;15.77;;;8.27;;
52942;SDS011;38809;53.300;6.614;2023-03-21T06:24:00;12.80;;;7.22;;
52942;SDS011;38809;53.300;6.614;2023-03-21T06:26:26;13.27;;;7.07;;
52942;SDS011;38809;53.300;6.614;2023-03-21T06:28:52;12.25;;;7.15;;
52942;SDS011;38809;53.300;6.614;2023-03-21T06:31:18;11.15;;;6.85;;
52942;SDS011;38809;53.300;6.614;2023-03-21T06:33:47;11.02;;;6.47;;
52942;SDS011;38809;53.300;6.614;2023-03-21T06:36:13;9.77;;;5.95;;
52942;SDS011;38809;53.300;6.614;2023-03-21T06:38:39;11.45;;;6.72;;
52942;SDS011;38809;53.300;6.614;2023-03-21T06:41:05;11.95;;;6.63;;
52942;SDS011;38809;53.300;6.614;2023-03-21T06:45:58;10.57;;;6.13;;
52942;SDS011;38809;53.300;6.614;2023-03-21T06:48:24;10.90;;;4.95;;
52942;SDS011;38809;53.300;6.614;2023-03-21T06:50:50;13.30;;;6.30;;
52942;SDS011;38809;53.300;6.614;2023-03-21T06:55:47;11.13;;;6.10;;
52942;SDS011;38809;53.300;6.614;2023-03-21T06:58:17;14.75;;;6.65;;
52942;SDS011;38809;53.300;6.614;2023-03-21T07:00:43;12.75;;;5.90;;
52942;SDS011;38809;53.300;6.614;2023-03-21T07:03:09;11.80;;;6.07;;
52942;SDS011;38809;53.300;6.614;2023-03-21T07:05:36;12.15;;;5.95;;
52942;SDS011;38809;53.300;6.614;2023-03-21T07:08:03;12.75;;;7.05;;
52942;SDS011;38809;53.300;6.614;2023-03-21T07:10:29;10.93;;;6.65;;
52942;SDS011;38809;53.300;6.614;2023-03-21T07:12:57;11.77;;;6.72;;
52942;SDS011;38809;53.300;6.614;2023-03-21T07:15:23;9.00;;;5.53;;
52942;SDS011;38809;53.300;6.614;2023-03-21T07:20:16;11.80;;;6.57;;
52942;SDS011;38809;53.300;6.614;2023-03-21T07:22:41;10.55;;;6.47;;
52942;SDS011;38809;53.300;6.614;2023-03-21T07:25:07;11.07;;;6.78;;
52942;SDS011;38809;53.300;6.614;2023-03-21T07:27:34;10.77;;;7.30;;
52942;SDS011;38809;53.300;6.614;2023-03-21T07:30:01;11.60;;;6.45;;
52942;SDS011;38809;53.300;6.614;2023-03-21T07:32:30;11.82;;;6.15;;
52942;SDS011;38809;53.300;6.614;2023-03-21T07:35:02;10.77;;;6.10;;
52942;SDS011;38809;53.300;6.614;2023-03-21T07:37:27;11.73;;;7.22;;
52942;SDS011;38809;53.300;6.614;2023-03-21T07:39:53;10.43;;;7.03;;
52942;SDS011;38809;53.300;6.614;2023-03-21T07:42:19;9.80;;;6.30;;
52942;SDS011;38809;53.300;6.614;2023-03-21T07:44:45;9.90;;;6.35;;
52942;SDS011;38809;53.300;6.614;2023-03-21T07:47:11;11.50;;;7.03;;
52942;SDS011;38809;53.300;6.614;2023-03-21T07:49:37;11.45;;;6.57;;
52942;SDS011;38809;53.300;6.614;2023-03-21T07:52:03;9.73;;;6.13;;
52942;SDS011;38809;53.300;6.614;2023-03-21T07:56:55;11.63;;;6.88;;
52942;SDS011;38809;53.300;6.614;2023-03-21T07:59:21;11.93;;;7.13;;
52942;SDS011;38809;53.300;6.614;2023-03-21T08:01:47;11.57;;;6.60;;
52942;SDS011;38809;53.300;6.614;2023-03-21T08:04:13;9.30;;;6.18;;
52942;SDS011;38809;53.300;6.614;2023-03-21T08:06:38;10.23;;;6.63;;
52942;SDS011;38809;53.300;6.614;2023-03-21T08:09:04;9.73;;;6.25;;
52942;SDS011;38809;53.300;6.614;2023-03-21T08:11:30;9.43;;;6.03;;
52942;SDS011;38809;53.300;6.614;2023-03-21T08:13:57;8.85;;;5.65;;
52942;SDS011;38809;53.300;6.614;2023-03-21T08:16:23;10.02;;;5.97;;
52942;SDS011;38809;53.300;6.614;2023-03-21T08:18:49;8.80;;;5.82;;
52942;SDS011;38809;53.300;6.614;2023-03-21T08:21:15;8.85;;;5.60;;
52942;SDS011;38809;53.300;6.614;2023-03-21T08:23:41;8.30;;;5.55;;
52942;SDS011;38809;53.300;6.614;2023-03-21T08:26:06;8.82;;;6.05;;
52942;SDS011;38809;53.300;6.614;2023-03-21T08:28:33;7.63;;;5.15;;
52942;SDS011;38809;53.300;6.614;2023-03-21T08:31:05;7.18;;;5.32;;
52942;SDS011;38809;53.300;6.614;2023-03-21T08:33:35;8.55;;;5.43;;
52942;SDS011;38809;53.300;6.614;2023-03-21T08:36:01;6.57;;;4.47;;
52942;SDS011;38809;53.300;6.614;2023-03-21T08:38:28;7.32;;;4.40;;
52942;SDS011;38809;53.300;6.614;2023-03-21T08:40:57;5.95;;;4.18;;
52942;SDS011;38809;53.300;6.614;2023-03-21T08:43:24;7.38;;;4.40;;
52942;SDS011;38809;53.300;6.614;2023-03-21T08:45:50;6.68;;;4.32;;
52942;SDS011;38809;53.300;6.614;2023-03-21T08:48:17;6.85;;;4.47;;
52942;SDS011;38809;53.300;6.614;2023-03-21T08:50:43;5.53;;;3.92;;
52942;SDS011;38809;53.300;6.614;2023-03-21T08:53:09;7.47;;;4.25;;
52942;SDS011;38809;53.300;6.614;2023-03-21T08:55:35;5.72;;;4.05;;
52942;SDS011;38809;53.300;6.614;2023-03-21T08:58:01;6.68;;;4.10;;
52942;SDS011;38809;53.300;6.614;2023-03-21T09:00:27;5.43;;;3.88;;
52942;SDS011;38809;53.300;6.614;2023-03-21T09:02:53;5.68;;;4.35;;
52942;SDS011;38809;53.300;6.614;2023-03-21T09:05:20;5.63;;;4.05;;
52942;SDS011;38809;53.300;6.614;2023-03-21T09:07:46;6.40;;;4.00;;
52942;SDS011;38809;53.300;6.614;2023-03-21T09:10:16;4.70;;;3.70;;
52942;SDS011;38809;53.300;6.614;2023-03-21T09:12:43;5.90;;;4.07;;
52942;SDS011;38809;53.300;6.614;2023-03-21T09:15:10;5.68;;;3.97;;
52942;SDS011;38809;53.300;6.614;2023-03-21T09:17:39;5.80;;;4.35;;
52942;SDS011;38809;53.300;6.614;2023-03-21T09:20:10;5.65;;;4.10;;
52942;SDS011;38809;53.300;6.614;2023-03-21T09:22:45;4.63;;;3.60;;
52942;SDS011;38809;53.300;6.614;2023-03-21T09:25:13;4.78;;;3.35;;
52942;SDS011;38809;53.300;6.614;2023-03-21T09:27:40;4.82;;;3.70;;
52942;SDS011;38809;53.300;6.614;2023-03-21T09:30:07;5.32;;;3.63;;
52942;SDS011;38809;53.300;6.614;2023-03-21T09:32:34;5.13;;;3.83;;
52942;SDS011;38809;53.300;6.614;2023-03-21T09:37:27;6.05;;;3.92;;
52942;SDS011;38809;53.300;6.614;2023-03-21T09:39:53;7.70;;;4.70;;
52942;SDS011;38809;53.300;6.614;2023-03-21T09:45:17;7.93;;;5.65;;
52942;SDS011;38809;53.300;6.614;2023-03-21T09:48:00;8.05;;;5.85;;
52942;SDS011;38809;53.300;6.614;2023-03-21T09:50:30;10.38;;;6.72;;
52942;SDS011;38809;53.300;6.614;2023-03-21T09:55:35;10.02;;;6.57;;
52942;SDS011;38809;53.300;6.614;2023-03-21T09:58:05;8.75;;;6.60;;
52942;SDS011;38809;53.300;6.614;2023-03-21T10:00:39;9.55;;;6.40;;
52942;SDS011;38809;53.300;6.614;2023-03-21T10:03:20;9.90;;;7.10;;
52942;SDS011;38809;53.300;6.614;2023-03-21T10:05:54;9.18;;;6.40;;
52942;SDS011;38809;53.300;6.614;2023-03-21T10:08:35;10.00;;;7.00;;
52942;SDS011;38809;53.300;6.614;2023-03-21T10:11:06;9.00;;;5.95;;
52942;SDS011;38809;53.300;6.614;2023-03-21T10:14:04;10.13;;;6.90;;
52942;SDS011;38809;53.300;6.614;2023-03-21T10:16:40;11.80;;;7.75;;
52942;SDS011;38809;53.300;6.614;2023-03-21T10:19:13;11.20;;;7.78;;
52942;SDS011;38809;53.300;6.614;2023-03-21T10:21:41;12.15;;;8.70;;
52942;SDS011;38809;53.300;6.614;2023-03-21T10:24:17;12.30;;;9.02;;
52942;SDS011;38809;53.300;6.614;2023-03-21T10:26:46;13.93;;;9.63;;
52942;SDS011;38809;53.300;6.614;2023-03-21T10:29:14;13.63;;;10.35;;
52942;SDS011;38809;53.300;6.614;2023-03-21T10:31:42;12.63;;;9.48;;
52942;SDS011;38809;53.300;6.614;2023-03-21T10:37:04;13.10;;;8.85;;
52942;SDS011;38809;53.300;6.614;2023-03-21T10:41:58;13.00;;;8.43;;
52942;SDS011;38809;53.300;6.614;2023-03-21T10:44:28;15.32;;;9.07;;
52942;SDS011;38809;53.300;6.614;2023-03-21T10:46:56;12.45;;;8.80;;
52942;SDS011;38809;53.300;6.614;2023-03-21T10:49:28;12.52;;;8.48;;
52942;SDS011;38809;53.300;6.614;2023-03-21T10:51:56;14.23;;;8.63;;
52942;SDS011;38809;53.300;6.614;2023-03-21T10:54:30;11.00;;;7.72;;
52942;SDS011;38809;53.300;6.614;2023-03-21T10:57:03;11.65;;;8.07;;
52942;SDS011;38809;53.300;6.614;2023-03-21T10:59:37;12.05;;;8.15;;
52942;SDS011;38809;53.300;6.614;2023-03-21T11:04:57;13.60;;;8.18;;
52942;SDS011;38809;53.300;6.614;2023-03-21T11:07:58;12.63;;;8.30;;
52942;SDS011;38809;53.300;6.614;2023-03-21T11:10:31;12.82;;;8.82;;
52942;SDS011;38809;53.300;6.614;2023-03-21T11:13:07;14.43;;;8.68;;
52942;SDS011;38809;53.300;6.614;2023-03-21T11:15:51;12.65;;;8.73;;
52942;SDS011;38809;53.300;6.614;2023-03-21T11:18:26;13.10;;;9.05;;
52942;SDS011;38809;53.300;6.614;2023-03-21T11:20:57;12.43;;;8.20;;
52942;SDS011;38809;53.300;6.614;2023-03-21T11:23:29;12.65;;;9.27;;
52942;SDS011;38809;53.300;6.614;2023-03-21T11:25:58;14.25;;;8.80;;
52942;SDS011;38809;53.300;6.614;2023-03-21T11:28:26;15.13;;;9.25;;
52942;SDS011;38809;53.300;6.614;2023-03-21T11:31:00;15.20;;;9.20;;
52942;SDS011;38809;53.300;6.614;2023-03-21T11:33:41;11.65;;;7.90;;
52942;SDS011;38809;53.300;6.614;2023-03-21T11:38:42;12.00;;;7.97;;
52942;SDS011;38809;53.300;6.614;2023-03-21T11:41:08;12.07;;;8.07;;
52942;SDS011;38809;53.300;6.614;2023-03-21T11:43:50;12.63;;;7.65;;
52942;SDS011;38809;53.300;6.614;2023-03-21T11:46:21;10.38;;;6.97;;
52942;SDS011;38809;53.300;6.614;2023-03-21T11:48:48;9.80;;;7.00;;
52942;SDS011;38809;53.300;6.614;2023-03-21T11:53:58;12.07;;;7.03;;
52942;SDS011;38809;53.300;6.614;2023-03-21T11:59:23;10.60;;;6.57;;
52942;SDS011;38809;53.300;6.614;2023-03-21T12:04:50;8.85;;;6.43;;
52942;SDS011;38809;53.300;6.614;2023-03-21T12:13:02;9.85;;;5.85;;
52942;SDS011;38809;53.300;6.614;2023-03-21T12:20:53;8.48;;;5.75;;
52942;SDS011;38809;53.300;6.614;2023-03-21T12:23:41;12.10;;;6.35;;
52942;SDS011;38809;53.300;6.614;2023-03-21T12:26:24;13.27;;;6.17;;
52942;SDS011;38809;53.300;6.614;2023-03-21T12:29:13;13.90;;;6.90;;
52942;SDS011;38809;53.300;6.614;2023-03-21T12:39:41;12.40;;;6.65;;
52942;SDS011;38809;53.300;6.614;2023-03-21T12:45:03;12.38;;;6.07;;
52942;SDS011;38809;53.300;6.614;2023-03-21T12:47:33;10.27;;;6.30;;
52942;SDS011;38809;53.300;6.614;2023-03-21T12:50:20;13.52;;;6.50;;
52942;SDS011;38809;53.300;6.614;2023-03-21T12:52:56;10.38;;;5.80;;
52942;SDS011;38809;53.300;6.614;2023-03-21T12:55:28;8.77;;;6.10;;
52942;SDS011;38809;53.300;6.614;2023-03-21T13:00:27;7.23;;;5.13;;
52942;SDS011;38809;53.300;6.614;2023-03-21T13:05:43;12.27;;;6.40;;
52942;SDS011;38809;53.300;6.614;2023-03-21T13:08:27;10.00;;;6.00;;
52942;SDS011;38809;53.300;6.614;2023-03-21T13:10:58;9.82;;;6.32;;
52942;SDS011;38809;53.300;6.614;2023-03-21T13:24:26;8.70;;;6.20;;
52942;SDS011;38809;53.300;6.614;2023-03-21T13:27:05;10.05;;;6.05;;
52942;SDS011;38809;53.300;6.614;2023-03-21T13:29:51;8.35;;;5.75;;
52942;SDS011;38809;53.300;6.614;2023-03-21T13:32:40;9.75;;;5.57;;
52942;SDS011;38809;53.300;6.614;2023-03-21T13:37:34;10.65;;;6.18;;
52942;SDS011;38809;53.300;6.614;2023-03-21T13:40:06;11.27;;;6.20;;
52942;SDS011;38809;53.300;6.614;2023-03-21T13:42:54;14.85;;;5.80;;
52942;SDS011;38809;53.300;6.614;2023-03-21T13:45:28;10.10;;;5.65;;
52942;SDS011;38809;53.300;6.614;2023-03-21T13:50:26;11.95;;;6.43;;
52942;SDS011;38809;53.300;6.614;2023-03-21T13:55:43;10.27;;;6.40;;
52942;SDS011;38809;53.300;6.614;2023-03-21T13:58:23;12.15;;;6.47;;
52942;SDS011;38809;53.300;6.614;2023-03-21T14:01:09;7.85;;;5.82;;
52942;SDS011;38809;53.300;6.614;2023-03-21T14:03:36;9.85;;;6.45;;
52942;SDS011;38809;53.300;6.614;2023-03-21T14:06:03;10.57;;;6.35;;
52942;SDS011;38809;53.300;6.614;2023-03-21T14:08:30;9.25;;;6.10;;
52942;SDS011;38809;53.300;6.614;2023-03-21T14:10:59;12.50;;;6.72;;
52942;SDS011;38809;53.300;6.614;2023-03-21T14:13:28;8.85;;;5.82;;
52942;SDS011;38809;53.300;6.614;2023-03-21T14:15:57;10.60;;;6.88;;
52942;SDS011;38809;53.300;6.614;2023-03-21T14:18:26;11.55;;;6.47;;
52942;SDS011;38809;53.300;6.614;2023-03-21T14:20:53;10.60;;;6.70;;
52942;SDS011;38809;53.300;6.614;2023-03-21T14:23:21;8.70;;;6.40;;
52942;SDS011;38809;53.300;6.614;2023-03-21T14:25:47;11.13;;;6.57;;
52942;SDS011;38809;53.300;6.614;2023-03-21T14:30:41;10.18;;;6.45;;
52942;SDS011;38809;53.300;6.614;2023-03-21T14:33:12;9.50;;;6.78;;
52942;SDS011;38809;53.300;6.614;2023-03-21T14:35:39;9.30;;;6.32;;
52942;SDS011;38809;53.300;6.614;2023-03-21T14:38:06;13.52;;;6.78;;
52942;SDS011;38809;53.300;6.614;2023-03-21T14:40:33;11.95;;;7.43;;
52942;SDS011;38809;53.300;6.614;2023-03-21T14:43:03;12.13;;;6.93;;
52942;SDS011;38809;53.300;6.614;2023-03-21T14:45:30;11.40;;;7.20;;
52942;SDS011;38809;53.300;6.614;2023-03-21T14:58:26;10.52;;;6.85;;
52942;SDS011;38809;53.300;6.614;2023-03-21T15:00:54;9.50;;;7.20;;
52942;SDS011;38809;53.300;6.614;2023-03-21T15:03:24;10.95;;;7.10;;
52942;SDS011;38809;53.300;6.614;2023-03-21T15:05:52;8.75;;;6.95;;
52942;SDS011;38809;53.300;6.614;2023-03-21T15:08:21;10.18;;;6.40;;
52942;SDS011;38809;53.300;6.614;2023-03-21T15:13:49;11.80;;;6.90;;
52942;SDS011;38809;53.300;6.614;2023-03-21T15:16:16;8.80;;;6.50;;
52942;SDS011;38809;53.300;6.614;2023-03-21T15:18:43;9.23;;;6.70;;
52942;SDS011;38809;53.300;6.614;2023-03-21T15:21:11;10.55;;;6.57;;
52942;SDS011;38809;53.300;6.614;2023-03-21T15:23:43;12.35;;;7.50;;
52942;SDS011;38809;53.300;6.614;2023-03-21T15:26:13;8.02;;;6.47;;
52942;SDS011;38809;53.300;6.614;2023-03-21T15:28:41;10.77;;;7.22;;
52942;SDS011;38809;53.300;6.614;2023-03-21T15:31:16;10.75;;;6.85;;
52942;SDS011;38809;53.300;6.614;2023-03-21T15:34:19;12.50;;;6.97;;
52942;SDS011;38809;53.300;6.614;2023-03-21T15:36:56;9.98;;;6.93;;
52942;SDS011;38809;53.300;6.614;2023-03-21T15:39:26;11.45;;;6.88;;
52942;SDS011;38809;53.300;6.614;2023-03-21T15:42:00;9.32;;;7.10;;
52942;SDS011;38809;53.300;6.614;2023-03-21T15:44:31;17.80;;;7.95;;
52942;SDS011;38809;53.300;6.614;2023-03-21T15:46:59;9.57;;;6.93;;
52942;SDS011;38809;53.300;6.614;2023-03-21T15:49:31;9.30;;;6.35;;
52942;SDS011;38809;53.300;6.614;2023-03-21T15:54:28;10.57;;;6.90;;
52942;SDS011;38809;53.300;6.614;2023-03-21T15:56:59;11.13;;;7.15;;
52942;SDS011;38809;53.300;6.614;2023-03-21T15:59:35;11.70;;;7.30;;
52942;SDS011;38809;53.300;6.614;2023-03-21T16:07:20;10.48;;;7.13;;
52942;SDS011;38809;53.300;6.614;2023-03-21T16:09:49;10.85;;;7.88;;
52942;SDS011;38809;53.300;6.614;2023-03-21T16:12:21;10.38;;;7.15;;
52942;SDS011;38809;53.300;6.614;2023-03-21T16:14:48;14.40;;;7.35;;
52942;SDS011;38809;53.300;6.614;2023-03-21T16:19:51;12.55;;;7.30;;
52942;SDS011;38809;53.300;6.614;2023-03-21T16:24:45;11.13;;;7.90;;
52942;SDS011;38809;53.300;6.614;2023-03-21T16:27:11;12.52;;;7.93;;
52942;SDS011;38809;53.300;6.614;2023-03-21T16:29:37;12.25;;;7.70;;
52942;SDS011;38809;53.300;6.614;2023-03-21T16:32:02;10.52;;;7.68;;
52942;SDS011;38809;53.300;6.614;2023-03-21T16:34:30;13.20;;;8.27;;
52942;SDS011;38809;53.300;6.614;2023-03-21T16:36:57;12.48;;;9.15;;
52942;SDS011;38809;53.300;6.614;2023-03-21T16:39:24;13.18;;;9.32;;
52942;SDS011;38809;53.300;6.614;2023-03-21T16:41:50;14.75;;;8.63;;
52942;SDS011;38809;53.300;6.614;2023-03-21T16:44:17;12.18;;;8.57;;
52942;SDS011;38809;53.300;6.614;2023-03-21T16:46:43;11.07;;;7.90;;
52942;SDS011;38809;53.300;6.614;2023-03-21T16:49:18;13.93;;;8.77;;
52942;SDS011;38809;53.300;6.614;2023-03-21T16:51:46;12.55;;;9.48;;
52942;SDS011;38809;53.300;6.614;2023-03-21T16:54:12;14.75;;;9.15;;
52942;SDS011;38809;53.300;6.614;2023-03-21T16:56:38;13.63;;;9.25;;
52942;SDS011;38809;53.300;6.614;2023-03-21T16:59:06;14.35;;;9.75;;
52942;SDS011;38809;53.300;6.614;2023-03-21T17:01:35;14.02;;;9.43;;
52942;SDS011;38809;53.300;6.614;2023-03-21T17:06:28;13.60;;;9.70;;
52942;SDS011;38809;53.300;6.614;2023-03-21T17:11:21;18.10;;;10.57;;
52942;SDS011;38809;53.300;6.614;2023-03-21T17:13:49;13.10;;;9.57;;
52942;SDS011;38809;53.300;6.614;2023-03-21T17:16:21;14.73;;;10.30;;
52942;SDS011;38809;53.300;6.614;2023-03-21T17:18:48;14.02;;;9.43;;
52942;SDS011;38809;53.300;6.614;2023-03-21T17:21:16;14.27;;;10.50;;
52942;SDS011;38809;53.300;6.614;2023-03-21T17:23:44;15.70;;;10.88;;
52942;SDS011;38809;53.300;6.614;2023-03-21T17:26:11;14.02;;;10.85;;
52942;SDS011;38809;53.300;6.614;2023-03-21T17:28:39;15.27;;;10.13;;
52942;SDS011;38809;53.300;6.614;2023-03-21T17:31:11;15.73;;;11.13;;
52942;SDS011;38809;53.300;6.614;2023-03-21T17:33:38;16.20;;;10.80;;
52942;SDS011;38809;53.300;6.614;2023-03-21T17:36:03;16.63;;;10.90;;
52942;SDS011;38809;53.300;6.614;2023-03-21T17:38:30;15.27;;;10.63;;
52942;SDS011;38809;53.300;6.614;2023-03-21T17:40:55;13.73;;;9.80;;
52942;SDS011;38809;53.300;6.614;2023-03-21T17:43:22;15.18;;;10.68;;
52942;SDS011;38809;53.300;6.614;2023-03-21T17:45:48;14.77;;;10.95;;
52942;SDS011;38809;53.300;6.614;2023-03-21T17:48:14;18.35;;;11.90;;